Terminal Aerodrome Forecast
Issued by NWS

Home | Current Version | Previous Version | Text Only | Print | Product List | Glossary On
Versions: 1 2 3 4 5 6 7 8 9 10 11 12
000
FTUS43 KGLD 142333
TAFMCK
TAF
KMCK 142333Z 1500/1524 33024G34KT P6SM SCT030
     FM150200 32015KT P6SM SKC WS010/33035KT
     FM150800 30008KT P6SM SKC
     FM151300 27007KT P6SM SKC=

USA.gov is the U.S. government's official web portal to all federal, state and local government web resources and services.